Bald Eagle
, Park City
Last Weather Update:05/15/2012 2:00:00 AM
Date
ETo
ETc
Rain
Irrigation
Req
Temp
Max
Temp
Min
Temp
Avg
Avg RH
Avg Wind
Avg Solar
inches
inches
incehs
inches
F
F
F
%
%
watts/m2
04/01/2012 0.05" 0.00" 0.00" 0.00" 47.3° 19.5° 31.6° 77.3% 10.2 MPH 104.9w/m2
04/02/2012 0.07" 0.00" 0.00" 0.00" 35.0° 13.4° 24.2° 69.3% 9.3 MPH 229.1w/m2
04/03/2012 0.12" 0.01" 0.00" 0.01" 47.1° 21.1° 33.2° 47.0% 4.6 MPH 291.8w/m2
04/04/2012 0.17" 0.01" 0.00" 0.01" 53.3° 35.6° 44.3° 28.3% 6.8 MPH 282.8w/m2
04/05/2012 0.11" 0.01" 0.00" 0.01" 44.8° 35.5° 40.7° 23.8% 8.0 MPH 153.4w/m2
04/06/2012 0.06" 0.01" 0.00" 0.01" 35.7° 17.3° 23.2° 55.8% 6.4 MPH 196.4w/m2
04/07/2012 0.14" 0.02" 0.00" 0.02" 47.6° 18.0° 32.0° 20.0% 4.8 MPH 295.6w/m2
04/08/2012 0.17" 0.02" 0.00" 0.02" 55.9° 35.5° 45.6° 17.0% 4.2 MPH 303.1w/m2
04/09/2012 0.18" 0.03" 0.00" 0.03" 59.1° 41.4° 50.2° 20.9% 4.5 MPH 293.1w/m2
04/10/2012 0.17" 0.03" 0.00" 0.03" 63.0° 43.1° 52.4° 14.5% 4.3 MPH 259.4w/m2
04/11/2012 0.15" 0.03" 0.00" 0.03" 58.9° 28.7° 45.8° 96.6% 5.8 MPH 216.1w/m2
04/12/2012 0.06" 0.01" 0.33" -0.25" 35.2° 23.6° 29.0° 59.5% 2.2 MPH 183.0w/m2
04/13/2012 0.08" 0.02" 0.06" -0.03" 38.2° 21.6° 28.8° 83.9% 4.4 MPH 234.8w/m2
04/14/2012 0.04" 0.01" 0.33" -0.25" 35.8° 24.4° 28.0° 80.7% 4.4 MPH 115.0w/m2
04/15/2012 0.11" 0.03" 0.06" -0.02" 37.3° 25.9° 31.5° 59.6% 7.5 MPH 274.7w/m2
04/17/2012 0.07" 0.02" 0.20" -0.14" 44.1° 31.2° 37.0° 64.6% 3.8 MPH 158.9w/m2
04/18/2012 0.04" 0.01" 0.29" -0.22" 41.4° 31.9° 36.6° 76.5% 4.0 MPH 69.1w/m2
04/19/2012 0.08" 0.02" 0.09" -0.05" 43.5° 30.4° 36.4° 76.4% 4.8 MPH 175.4w/m2
04/20/2012 0.13" 0.04" 0.00" 0.04" 55.1° 36.2° 44.1° 51.2% 5.2 MPH 259.2w/m2
04/21/2012 0.18" 0.06" 0.00" 0.06" 63.5° 42.5° 52.8° 31.7% 2.7 MPH 320.9w/m2
04/22/2012 0.19" 0.07" 0.00" 0.07" 68.5° 48.3° 58.0° 30.1% 2.7 MPH 293.1w/m2
04/23/2012 0.20" 0.08" 0.00" 0.08" 70.1° 53.4° 60.8° 25.0% 4.1 MPH 286.9w/m2
04/24/2012 0.23" 0.09" 0.00" 0.09" 66.7° 50.7° 59.0° 21.6% 5.2 MPH 327.3w/m2
04/25/2012 0.12" 0.05" 0.00" 0.05" 57.5° 45.6° 50.9° 64.5% 4.9 MPH 171.9w/m2
04/26/2012 0.12" 0.05" 0.18" -0.09" 60.0° 31.3° 46.9° 89.7% 6.6 MPH 187.2w/m2
04/27/2012 0.08" 0.04" 0.12" -0.06" 33.5° 24.0° 27.4° 71.4% 8.3 MPH 264.7w/m2
04/28/2012 0.13" 0.06" 0.00" 0.06" 39.0° 18.9° 28.8° 58.4% 5.5 MPH 341.2w/m2
04/29/2012 0.15" 0.07" 0.00" 0.07" 51.4° 27.6° 37.6° 52.4% 3.1 MPH 328.9w/m2
04/30/2012 0.17" 0.08" 0.00" 0.08" 56.4° 37.6° 46.7° 79.5% 5.5 MPH 281.8w/m2
Totals: 3.56" 0.98" 1.66" -0.35" 70.1° 13.4° 40.1° 53.4% 5.3 MPH 237.9w/m2